sensor_id;sensor_type;location;lat;lon;timestamp;pressure;altitude;pressure_sealevel;temperature;humidity
37778;BME280;23615;51.506;7.678;2023-03-22T00:00:14;99529.63;;;10.50;89.92
37778;BME280;23615;51.506;7.678;2023-03-22T00:02:41;99523.63;;;10.31;89.96
37778;BME280;23615;51.506;7.678;2023-03-22T00:05:07;99521.69;;;10.27;90.80
37778;BME280;23615;51.506;7.678;2023-03-22T00:07:33;99520.06;;;10.37;89.64
37778;BME280;23615;51.506;7.678;2023-03-22T00:09:58;99522.72;;;10.37;90.15
37778;BME280;23615;51.506;7.678;2023-03-22T00:12:23;99518.06;;;10.33;90.56
37778;BME280;23615;51.506;7.678;2023-03-22T00:14:49;99514.38;;;10.34;90.48
37778;BME280;23615;51.506;7.678;2023-03-22T00:17:14;99518.97;;;10.38;89.83
37778;BME280;23615;51.506;7.678;2023-03-22T00:19:39;99519.25;;;10.37;89.85
37778;BME280;23615;51.506;7.678;2023-03-22T00:22:06;99521.19;;;10.30;90.21
37778;BME280;23615;51.506;7.678;2023-03-22T00:24:33;99508.22;;;10.45;89.90
37778;BME280;23615;51.506;7.678;2023-03-22T00:26:58;99511.66;;;10.57;89.40
37778;BME280;23615;51.506;7.678;2023-03-22T00:29:24;99508.53;;;10.48;89.86
37778;BME280;23615;51.506;7.678;2023-03-22T00:31:50;99510.53;;;10.41;90.19
37778;BME280;23615;51.506;7.678;2023-03-22T00:34:18;99508.81;;;10.35;90.41
37778;BME280;23615;51.506;7.678;2023-03-22T00:36:43;99509.50;;;10.42;90.42
37778;BME280;23615;51.506;7.678;2023-03-22T00:39:09;99504.00;;;10.49;90.15
37778;BME280;23615;51.506;7.678;2023-03-22T00:41:34;99498.22;;;10.52;89.31
37778;BME280;23615;51.506;7.678;2023-03-22T00:43:59;99495.56;;;10.40;90.07
37778;BME280;23615;51.506;7.678;2023-03-22T00:46:25;99503.56;;;10.52;89.80
37778;BME280;23615;51.506;7.678;2023-03-22T00:48:51;99491.25;;;10.51;89.51
37778;BME280;23615;51.506;7.678;2023-03-22T00:51:16;99492.88;;;10.52;89.69
37778;BME280;23615;51.506;7.678;2023-03-22T00:53:42;99498.19;;;10.64;88.80
37778;BME280;23615;51.506;7.678;2023-03-22T00:56:09;99490.09;;;10.47;89.55
37778;BME280;23615;51.506;7.678;2023-03-22T00:58:34;99481.88;;;10.48;89.31
37778;BME280;23615;51.506;7.678;2023-03-22T01:01:00;99473.97;;;10.54;89.47
37778;BME280;23615;51.506;7.678;2023-03-22T01:03:25;99467.63;;;10.43;89.88
37778;BME280;23615;51.506;7.678;2023-03-22T01:05:52;99466.22;;;10.52;89.62
37778;BME280;23615;51.506;7.678;2023-03-22T01:08:21;99466.59;;;10.44;89.83
37778;BME280;23615;51.506;7.678;2023-03-22T01:10:47;99463.53;;;10.52;89.86
37778;BME280;23615;51.506;7.678;2023-03-22T01:13:13;99459.00;;;10.64;88.83
37778;BME280;23615;51.506;7.678;2023-03-22T01:15:39;99453.31;;;10.61;89.57
37778;BME280;23615;51.506;7.678;2023-03-22T01:18:05;99444.41;;;10.55;89.96
37778;BME280;23615;51.506;7.678;2023-03-22T01:20:31;99448.59;;;10.51;89.90
37778;BME280;23615;51.506;7.678;2023-03-22T01:22:57;99443.84;;;10.53;90.06
37778;BME280;23615;51.506;7.678;2023-03-22T01:25:23;99437.03;;;10.45;90.51
37778;BME280;23615;51.506;7.678;2023-03-22T01:27:48;99440.59;;;10.51;90.21
37778;BME280;23615;51.506;7.678;2023-03-22T01:30:14;99438.00;;;10.56;89.71
37778;BME280;23615;51.506;7.678;2023-03-22T01:32:39;99440.13;;;10.54;90.16
37778;BME280;23615;51.506;7.678;2023-03-22T01:35:05;99431.25;;;10.65;89.33
37778;BME280;23615;51.506;7.678;2023-03-22T01:37:31;99434.56;;;10.56;90.61
37778;BME280;23615;51.506;7.678;2023-03-22T01:39:56;99426.19;;;10.52;90.60
37778;BME280;23615;51.506;7.678;2023-03-22T01:42:22;99430.00;;;10.56;90.51
37778;BME280;23615;51.506;7.678;2023-03-22T01:47:40;99429.66;;;10.64;90.51
37778;BME280;23615;51.506;7.678;2023-03-22T01:50:07;99431.97;;;10.61;90.04
37778;BME280;23615;51.506;7.678;2023-03-22T01:52:33;99431.72;;;10.34;91.76
37778;BME280;23615;51.506;7.678;2023-03-22T01:54:59;99428.22;;;10.45;91.61
37778;BME280;23615;51.506;7.678;2023-03-22T01:57:25;99427.03;;;10.41;91.74
37778;BME280;23615;51.506;7.678;2023-03-22T01:59:50;99423.00;;;10.38;91.34
37778;BME280;23615;51.506;7.678;2023-03-22T02:02:17;99421.28;;;10.32;91.89
37778;BME280;23615;51.506;7.678;2023-03-22T02:04:44;99413.75;;;10.29;91.92
37778;BME280;23615;51.506;7.678;2023-03-22T02:07:15;99411.56;;;10.26;92.59
37778;BME280;23615;51.506;7.678;2023-03-22T02:09:52;99414.00;;;10.28;92.29
37778;BME280;23615;51.506;7.678;2023-03-22T02:15:03;99406.47;;;10.25;92.71
37778;BME280;23615;51.506;7.678;2023-03-22T02:17:52;99397.13;;;10.39;92.36
37778;BME280;23615;51.506;7.678;2023-03-22T02:31:12;99388.09;;;10.40;92.56
37778;BME280;23615;51.506;7.678;2023-03-22T02:33:56;99392.38;;;10.41;92.25
37778;BME280;23615;51.506;7.678;2023-03-22T02:36:43;99386.47;;;10.39;92.22
37778;BME280;23615;51.506;7.678;2023-03-22T02:41:53;99380.31;;;10.38;92.13
37778;BME280;23615;51.506;7.678;2023-03-22T02:44:39;99376.19;;;10.31;93.13
37778;BME280;23615;51.506;7.678;2023-03-22T02:47:25;99376.06;;;10.37;92.79
37778;BME280;23615;51.506;7.678;2023-03-22T02:53:10;99373.19;;;10.27;93.23
37778;BME280;23615;51.506;7.678;2023-03-22T02:58:24;99372.19;;;10.45;91.49
37778;BME280;23615;51.506;7.678;2023-03-22T03:00:54;99354.63;;;10.32;92.14
37778;BME280;23615;51.506;7.678;2023-03-22T03:03:22;99358.91;;;10.33;91.98
37778;BME280;23615;51.506;7.678;2023-03-22T03:06:05;99358.69;;;10.35;92.55
37778;BME280;23615;51.506;7.678;2023-03-22T03:08:33;99359.34;;;10.42;92.22
37778;BME280;23615;51.506;7.678;2023-03-22T03:10:59;99354.25;;;10.40;92.36
37778;BME280;23615;51.506;7.678;2023-03-22T03:13:25;99355.44;;;10.33;92.92
37778;BME280;23615;51.506;7.678;2023-03-22T03:15:55;99358.69;;;10.35;92.75
37778;BME280;23615;51.506;7.678;2023-03-22T03:18:39;99357.88;;;10.34;92.97
37778;BME280;23615;51.506;7.678;2023-03-22T03:21:23;99345.00;;;10.31;93.49
37778;BME280;23615;51.506;7.678;2023-03-22T03:24:22;99345.34;;;10.35;93.10
37778;BME280;23615;51.506;7.678;2023-03-22T03:29:38;99338.16;;;10.35;93.07
37778;BME280;23615;51.506;7.678;2023-03-22T03:32:22;99340.16;;;10.28;93.82
37778;BME280;23615;51.506;7.678;2023-03-22T03:34:55;99334.09;;;10.33;93.28
37778;BME280;23615;51.506;7.678;2023-03-22T03:37:30;99337.50;;;10.28;93.38
37778;BME280;23615;51.506;7.678;2023-03-22T03:42:27;99333.44;;;10.26;92.29
37778;BME280;23615;51.506;7.678;2023-03-22T03:44:54;99328.13;;;10.26;92.82
37778;BME280;23615;51.506;7.678;2023-03-22T03:47:20;99325.91;;;10.23;93.44
37778;BME280;23615;51.506;7.678;2023-03-22T03:49:46;99323.91;;;10.01;92.95
37778;BME280;23615;51.506;7.678;2023-03-22T03:52:12;99324.06;;;10.11;93.49
37778;BME280;23615;51.506;7.678;2023-03-22T03:54:38;99323.91;;;10.01;93.87
37778;BME280;23615;51.506;7.678;2023-03-22T03:57:03;99322.16;;;9.95;93.54
37778;BME280;23615;51.506;7.678;2023-03-22T03:59:28;99323.34;;;9.88;94.15
37778;BME280;23615;51.506;7.678;2023-03-22T04:01:54;99316.38;;;9.98;93.38
37778;BME280;23615;51.506;7.678;2023-03-22T04:04:22;99315.31;;;9.99;93.36
37778;BME280;23615;51.506;7.678;2023-03-22T04:06:52;99316.38;;;9.98;93.50
37778;BME280;23615;51.506;7.678;2023-03-22T04:09:18;99325.88;;;9.94;93.62
37778;BME280;23615;51.506;7.678;2023-03-22T04:11:43;99321.25;;;9.90;93.85
37778;BME280;23615;51.506;7.678;2023-03-22T04:14:08;99320.22;;;9.91;93.52
37778;BME280;23615;51.506;7.678;2023-03-22T04:16:34;99319.72;;;9.94;93.91
37778;BME280;23615;51.506;7.678;2023-03-22T04:18:59;99318.47;;;9.85;93.68
37778;BME280;23615;51.506;7.678;2023-03-22T04:21:24;99321.34;;;9.95;93.80
37778;BME280;23615;51.506;7.678;2023-03-22T04:23:50;99311.50;;;9.95;93.46
37778;BME280;23615;51.506;7.678;2023-03-22T04:26:15;99310.03;;;9.88;94.11
37778;BME280;23615;51.506;7.678;2023-03-22T04:28:40;99304.03;;;9.69;94.66
37778;BME280;23615;51.506;7.678;2023-03-22T04:31:06;99311.00;;;9.58;95.14
37778;BME280;23615;51.506;7.678;2023-03-22T04:33:32;99303.50;;;9.55;95.52
37778;BME280;23615;51.506;7.678;2023-03-22T04:36:04;99312.38;;;9.72;95.43
37778;BME280;23615;51.506;7.678;2023-03-22T04:38:31;99300.81;;;9.67;95.62
37778;BME280;23615;51.506;7.678;2023-03-22T04:40:56;99312.03;;;9.69;94.78
37778;BME280;23615;51.506;7.678;2023-03-22T04:43:22;99301.03;;;9.65;95.74
37778;BME280;23615;51.506;7.678;2023-03-22T04:45:48;99304.28;;;9.67;95.61
37778;BME280;23615;51.506;7.678;2023-03-22T04:48:13;99298.28;;;9.60;95.69
37778;BME280;23615;51.506;7.678;2023-03-22T04:50:39;99299.31;;;9.48;96.45
37778;BME280;23615;51.506;7.678;2023-03-22T04:53:04;99303.59;;;9.60;96.55
37778;BME280;23615;51.506;7.678;2023-03-22T04:55:30;99306.94;;;9.67;95.39
37778;BME280;23615;51.506;7.678;2023-03-22T04:57:55;99309.03;;;9.65;95.73
37778;BME280;23615;51.506;7.678;2023-03-22T05:00:20;99302.56;;;9.61;95.41
37778;BME280;23615;51.506;7.678;2023-03-22T05:02:46;99313.06;;;9.68;95.39
37778;BME280;23615;51.506;7.678;2023-03-22T05:05:11;99311.13;;;9.63;94.86
37778;BME280;23615;51.506;7.678;2023-03-22T05:07:37;99307.75;;;9.68;95.52
37778;BME280;23615;51.506;7.678;2023-03-22T05:10:04;99314.47;;;9.59;95.35
37778;BME280;23615;51.506;7.678;2023-03-22T05:12:30;99301.84;;;9.66;95.34
37778;BME280;23615;51.506;7.678;2023-03-22T05:14:55;99299.31;;;9.48;95.83
37778;BME280;23615;51.506;7.678;2023-03-22T05:17:21;99299.22;;;9.54;95.56
37778;BME280;23615;51.506;7.678;2023-03-22T05:19:46;99292.59;;;9.57;95.49
37778;BME280;23615;51.506;7.678;2023-03-22T05:22:11;99297.38;;;9.55;95.80
37778;BME280;23615;51.506;7.678;2023-03-22T05:24:38;99301.06;;;9.54;95.03
37778;BME280;23615;51.506;7.678;2023-03-22T05:27:03;99302.25;;;9.46;95.30
37778;BME280;23615;51.506;7.678;2023-03-22T05:29:29;99307.31;;;9.59;95.43
37778;BME280;23615;51.506;7.678;2023-03-22T05:32:01;99309.28;;;9.52;95.55
37778;BME280;23615;51.506;7.678;2023-03-22T05:34:26;99306.94;;;9.67;94.92
37778;BME280;23615;51.506;7.678;2023-03-22T05:36:59;99310.16;;;9.81;94.22
37778;BME280;23615;51.506;7.678;2023-03-22T05:39:25;99312.00;;;9.92;94.56
37778;BME280;23615;51.506;7.678;2023-03-22T05:41:50;99304.03;;;9.81;94.73
37778;BME280;23615;51.506;7.678;2023-03-22T05:44:15;99291.88;;;9.73;94.63
37778;BME280;23615;51.506;7.678;2023-03-22T05:46:41;99303.69;;;9.77;94.74
37778;BME280;23615;51.506;7.678;2023-03-22T05:49:06;99304.34;;;9.84;94.91
37778;BME280;23615;51.506;7.678;2023-03-22T05:51:31;99301.97;;;9.71;95.21
37778;BME280;23615;51.506;7.678;2023-03-22T05:53:57;99305.28;;;9.90;94.24
37778;BME280;23615;51.506;7.678;2023-03-22T05:56:22;99295.22;;;9.80;95.05
37778;BME280;23615;51.506;7.678;2023-03-22T05:58:48;99303.78;;;9.82;95.24
37778;BME280;23615;51.506;7.678;2023-03-22T06:01:13;99300.84;;;9.95;94.61
37778;BME280;23615;51.506;7.678;2023-03-22T06:03:41;99296.94;;;9.86;94.57
37778;BME280;23615;51.506;7.678;2023-03-22T06:06:07;99305.34;;;9.95;95.32
37778;BME280;23615;51.506;7.678;2023-03-22T06:08:35;99291.59;;;9.86;95.42
37778;BME280;23615;51.506;7.678;2023-03-22T06:11:02;99294.47;;;9.96;95.68
37778;BME280;23615;51.506;7.678;2023-03-22T06:13:27;99297.41;;;9.83;95.89
37778;BME280;23615;51.506;7.678;2023-03-22T06:15:52;99301.63;;;10.07;94.47
37778;BME280;23615;51.506;7.678;2023-03-22T06:18:18;99299.75;;;10.08;94.76
37778;BME280;23615;51.506;7.678;2023-03-22T06:20:43;99294.09;;;10.04;95.02
37778;BME280;23615;51.506;7.678;2023-03-22T06:23:09;99297.88;;;10.20;94.25
37778;BME280;23615;51.506;7.678;2023-03-22T06:25:34;99288.69;;;10.28;93.74
37778;BME280;23615;51.506;7.678;2023-03-22T06:28:00;99293.34;;;10.21;93.91
37778;BME280;23615;51.506;7.678;2023-03-22T06:30:26;99298.94;;;10.07;94.51
37778;BME280;23615;51.506;7.678;2023-03-22T06:32:51;99305.75;;;10.15;95.06
37778;BME280;23615;51.506;7.678;2023-03-22T06:35:16;99299.63;;;10.43;93.63
37778;BME280;23615;51.506;7.678;2023-03-22T06:37:42;99286.28;;;10.43;92.93
37778;BME280;23615;51.506;7.678;2023-03-22T06:40:08;99280.38;;;10.41;93.41
37778;BME280;23615;51.506;7.678;2023-03-22T06:42:33;99278.13;;;10.33;93.42
37778;BME280;23615;51.506;7.678;2023-03-22T06:44:59;99279.41;;;10.30;93.54
37778;BME280;23615;51.506;7.678;2023-03-22T06:47:25;99289.25;;;10.30;93.31
37778;BME280;23615;51.506;7.678;2023-03-22T06:49:51;99289.19;;;10.41;93.28
37778;BME280;23615;51.506;7.678;2023-03-22T06:52:16;99285.63;;;10.36;93.90
37778;BME280;23615;51.506;7.678;2023-03-22T06:54:41;99288.00;;;10.49;92.50
37778;BME280;23615;51.506;7.678;2023-03-22T06:57:07;99283.81;;;10.53;93.04
37778;BME280;23615;51.506;7.678;2023-03-22T06:59:32;99284.78;;;10.64;91.80
37778;BME280;23615;51.506;7.678;2023-03-22T07:01:57;99284.84;;;10.69;91.40
37778;BME280;23615;51.506;7.678;2023-03-22T07:04:23;99275.31;;;10.73;91.70
37778;BME280;23615;51.506;7.678;2023-03-22T07:06:49;99286.72;;;10.68;91.47
37778;BME280;23615;51.506;7.678;2023-03-22T07:09:14;99284.94;;;10.74;91.09
37778;BME280;23615;51.506;7.678;2023-03-22T07:11:39;99271.09;;;10.77;90.85
37778;BME280;23615;51.506;7.678;2023-03-22T07:14:05;99270.22;;;10.71;91.77
37778;BME280;23615;51.506;7.678;2023-03-22T07:16:30;99271.44;;;10.97;90.27
37778;BME280;23615;51.506;7.678;2023-03-22T07:18:55;99268.94;;;10.91;89.72
37778;BME280;23615;51.506;7.678;2023-03-22T07:21:21;99270.56;;;10.92;90.51
37778;BME280;23615;51.506;7.678;2023-03-22T07:23:46;99276.09;;;11.07;89.74
37778;BME280;23615;51.506;7.678;2023-03-22T07:26:12;99275.31;;;10.90;90.18
37778;BME280;23615;51.506;7.678;2023-03-22T07:28:38;99267.88;;;10.92;90.50
37778;BME280;23615;51.506;7.678;2023-03-22T07:31:07;99256.22;;;10.98;90.48
37778;BME280;23615;51.506;7.678;2023-03-22T07:33:36;99251.28;;;11.06;89.79
37778;BME280;23615;51.506;7.678;2023-03-22T07:36:01;99259.13;;;10.96;90.79
37778;BME280;23615;51.506;7.678;2023-03-22T07:38:26;99246.59;;;10.97;90.59
37778;BME280;23615;51.506;7.678;2023-03-22T07:40:52;99243.34;;;10.95;90.25
37778;BME280;23615;51.506;7.678;2023-03-22T07:43:21;99242.88;;;10.98;90.34
37778;BME280;23615;51.506;7.678;2023-03-22T07:45:50;99247.00;;;10.88;90.41
37778;BME280;23615;51.506;7.678;2023-03-22T07:48:16;99245.34;;;10.82;91.06
37778;BME280;23615;51.506;7.678;2023-03-22T07:50:42;99249.41;;;11.07;89.99
37778;BME280;23615;51.506;7.678;2023-03-22T07:53:08;99243.97;;;11.02;89.71
37778;BME280;23615;51.506;7.678;2023-03-22T07:55:34;99254.81;;;11.12;88.64
37778;BME280;23615;51.506;7.678;2023-03-22T07:58:00;99243.09;;;11.13;89.02
37778;BME280;23615;51.506;7.678;2023-03-22T08:00:26;99242.06;;;11.36;88.00
37778;BME280;23615;51.506;7.678;2023-03-22T08:02:51;99248.69;;;11.33;88.00
37778;BME280;23615;51.506;7.678;2023-03-22T08:05:17;99245.41;;;11.48;87.69
37778;BME280;23615;51.506;7.678;2023-03-22T08:07:42;99243.94;;;11.35;88.92
37778;BME280;23615;51.506;7.678;2023-03-22T08:10:08;99250.94;;;11.41;88.43
37778;BME280;23615;51.506;7.678;2023-03-22T08:12:33;99244.59;;;11.47;88.48
37778;BME280;23615;51.506;7.678;2023-03-22T08:14:59;99239.91;;;11.54;86.96
37778;BME280;23615;51.506;7.678;2023-03-22T08:17:24;99242.13;;;11.62;87.26
37778;BME280;23615;51.506;7.678;2023-03-22T08:19:50;99229.13;;;11.71;87.27
37778;BME280;23615;51.506;7.678;2023-03-22T08:22:18;99224.28;;;11.68;87.81
37778;BME280;23615;51.506;7.678;2023-03-22T08:24:47;99221.69;;;11.73;87.69
37778;BME280;23615;51.506;7.678;2023-03-22T08:27:12;99227.94;;;11.84;86.31
37778;BME280;23615;51.506;7.678;2023-03-22T08:29:38;99224.53;;;11.88;86.17
37778;BME280;23615;51.506;7.678;2023-03-22T08:32:03;99225.94;;;11.96;85.20
37778;BME280;23615;51.506;7.678;2023-03-22T08:34:29;99229.19;;;11.98;85.55
37778;BME280;23615;51.506;7.678;2023-03-22T08:36:55;99234.22;;;11.94;85.24
37778;BME280;23615;51.506;7.678;2023-03-22T08:39:20;99238.16;;;11.87;85.99
37778;BME280;23615;51.506;7.678;2023-03-22T08:41:46;99252.13;;;11.94;85.81
37778;BME280;23615;51.506;7.678;2023-03-22T08:44:11;99233.47;;;11.99;84.57
37778;BME280;23615;51.506;7.678;2023-03-22T08:46:37;99237.56;;;12.07;84.73
37778;BME280;23615;51.506;7.678;2023-03-22T08:49:02;99241.63;;;12.14;84.22
37778;BME280;23615;51.506;7.678;2023-03-22T08:51:28;99229.69;;;12.22;83.60
37778;BME280;23615;51.506;7.678;2023-03-22T08:53:54;99250.88;;;12.28;82.49
37778;BME280;23615;51.506;7.678;2023-03-22T08:56:22;99242.81;;;12.23;81.80
37778;BME280;23615;51.506;7.678;2023-03-22T08:58:48;99245.22;;;11.98;82.78
37778;BME280;23615;51.506;7.678;2023-03-22T09:01:16;99244.22;;;12.04;84.22
37778;BME280;23615;51.506;7.678;2023-03-22T09:03:41;99238.13;;;12.09;83.25
37778;BME280;23615;51.506;7.678;2023-03-22T09:06:10;99238.97;;;12.14;84.08
37778;BME280;23615;51.506;7.678;2023-03-22T09:08:36;99238.66;;;12.38;82.17
37778;BME280;23615;51.506;7.678;2023-03-22T09:11:02;99238.44;;;12.44;80.97
37778;BME280;23615;51.506;7.678;2023-03-22T09:13:27;99241.16;;;12.49;81.12
37778;BME280;23615;51.506;7.678;2023-03-22T09:15:55;99239.69;;;12.68;81.32
37778;BME280;23615;51.506;7.678;2023-03-22T09:18:21;99245.69;;;12.81;81.32
37778;BME280;23615;51.506;7.678;2023-03-22T09:20:48;99223.38;;;12.70;81.82
37778;BME280;23615;51.506;7.678;2023-03-22T09:23:14;99221.84;;;12.74;80.49
37778;BME280;23615;51.506;7.678;2023-03-22T09:25:49;99220.47;;;12.71;80.18
37778;BME280;23615;51.506;7.678;2023-03-22T09:28:15;99224.03;;;12.82;80.11
37778;BME280;23615;51.506;7.678;2023-03-22T09:30:41;99225.34;;;12.80;81.02
37778;BME280;23615;51.506;7.678;2023-03-22T09:33:06;99216.38;;;13.01;80.20
37778;BME280;23615;51.506;7.678;2023-03-22T09:35:32;99215.03;;;13.03;81.63
37778;BME280;23615;51.506;7.678;2023-03-22T09:37:58;99212.34;;;13.03;79.31
37778;BME280;23615;51.506;7.678;2023-03-22T09:40:26;99222.50;;;12.96;78.52
37778;BME280;23615;51.506;7.678;2023-03-22T09:42:54;99203.56;;;13.08;78.80
37778;BME280;23615;51.506;7.678;2023-03-22T09:45:42;99210.78;;;13.07;77.99
37778;BME280;23615;51.506;7.678;2023-03-22T09:48:17;99209.31;;;13.32;76.55
37778;BME280;23615;51.506;7.678;2023-03-22T09:50:46;99208.75;;;13.25;75.66
37778;BME280;23615;51.506;7.678;2023-03-22T09:53:14;99202.28;;;13.16;76.14
37778;BME280;23615;51.506;7.678;2023-03-22T09:55:45;99196.53;;;12.97;77.21
37778;BME280;23615;51.506;7.678;2023-03-22T09:58:23;99199.41;;;13.32;74.92
37778;BME280;23615;51.506;7.678;2023-03-22T10:00:59;99186.88;;;13.38;74.55
37778;BME280;23615;51.506;7.678;2023-03-22T10:06:28;99179.91;;;13.42;76.02
37778;BME280;23615;51.506;7.678;2023-03-22T10:11:41;99182.06;;;13.50;75.49
37778;BME280;23615;51.506;7.678;2023-03-22T10:16:54;99189.63;;;13.63;72.49
37778;BME280;23615;51.506;7.678;2023-03-22T10:19:42;99182.69;;;13.72;72.65
37778;BME280;23615;51.506;7.678;2023-03-22T10:22:14;99186.94;;;13.63;72.63
37778;BME280;23615;51.506;7.678;2023-03-22T10:24:43;99186.69;;;13.65;74.00
37778;BME280;23615;51.506;7.678;2023-03-22T10:27:13;99185.31;;;13.62;73.78
37778;BME280;23615;51.506;7.678;2023-03-22T10:29:42;99155.31;;;13.65;75.24
37778;BME280;23615;51.506;7.678;2023-03-22T10:32:14;99181.53;;;13.53;74.80
37778;BME280;23615;51.506;7.678;2023-03-22T10:34:40;99191.25;;;13.74;73.14
37778;BME280;23615;51.506;7.678;2023-03-22T10:37:11;99182.13;;;13.65;72.91
37778;BME280;23615;51.506;7.678;2023-03-22T10:39:40;99182.91;;;13.61;72.32
37778;BME280;23615;51.506;7.678;2023-03-22T10:42:13;99188.31;;;13.81;71.13
37778;BME280;23615;51.506;7.678;2023-03-22T10:44:52;99200.91;;;13.75;71.22
37778;BME280;23615;51.506;7.678;2023-03-22T10:47:28;99194.19;;;13.68;71.99
37778;BME280;23615;51.506;7.678;2023-03-22T10:49:57;99186.44;;;13.76;70.61
37778;BME280;23615;51.506;7.678;2023-03-22T10:54:54;99197.19;;;13.81;69.75
37778;BME280;23615;51.506;7.678;2023-03-22T10:57:22;99194.47;;;13.71;69.36
37778;BME280;23615;51.506;7.678;2023-03-22T10:59:51;99201.72;;;13.86;69.50
37778;BME280;23615;51.506;7.678;2023-03-22T11:02:24;99208.47;;;14.04;68.64
37778;BME280;23615;51.506;7.678;2023-03-22T11:04:53;99197.72;;;13.83;69.46
37778;BME280;23615;51.506;7.678;2023-03-22T11:07:50;99202.59;;;14.07;68.98
37778;BME280;23615;51.506;7.678;2023-03-22T11:15:39;99220.03;;;14.14;67.99
37778;BME280;23615;51.506;7.678;2023-03-22T11:18:14;99215.72;;;14.08;69.07
37778;BME280;23615;51.506;7.678;2023-03-22T11:20:41;99206.34;;;14.01;69.31
37778;BME280;23615;51.506;7.678;2023-03-22T11:23:11;99205.28;;;14.02;68.54
37778;BME280;23615;51.506;7.678;2023-03-22T11:25:47;99207.16;;;14.27;68.16
37778;BME280;23615;51.506;7.678;2023-03-22T11:28:26;99211.19;;;14.29;69.78
37778;BME280;23615;51.506;7.678;2023-03-22T11:31:05;99207.72;;;14.29;69.26
37778;BME280;23615;51.506;7.678;2023-03-22T11:33:31;99201.25;;;14.35;68.82
37778;BME280;23615;51.506;7.678;2023-03-22T11:35:59;99207.47;;;14.50;69.51
37778;BME280;23615;51.506;7.678;2023-03-22T11:38:35;99196.69;;;14.30;69.34
37778;BME280;23615;51.506;7.678;2023-03-22T11:41:06;99190.00;;;14.63;67.70
37778;BME280;23615;51.506;7.678;2023-03-22T11:43:42;99195.38;;;14.53;69.03
37778;BME280;23615;51.506;7.678;2023-03-22T11:46:14;99184.13;;;14.46;68.91
37778;BME280;23615;51.506;7.678;2023-03-22T11:48:41;99185.44;;;14.48;68.58
37778;BME280;23615;51.506;7.678;2023-03-22T11:51:25;99175.53;;;14.54;68.71
37778;BME280;23615;51.506;7.678;2023-03-22T11:54:05;99183.31;;;14.45;68.54
37778;BME280;23615;51.506;7.678;2023-03-22T11:56:31;99176.59;;;14.38;68.80
37778;BME280;23615;51.506;7.678;2023-03-22T11:59:12;99176.31;;;14.59;67.90
37778;BME280;23615;51.506;7.678;2023-03-22T12:01:41;99176.06;;;14.56;68.29
37778;BME280;23615;51.506;7.678;2023-03-22T12:04:16;99187.88;;;14.55;66.44
37778;BME280;23615;51.506;7.678;2023-03-22T12:06:42;99179.56;;;14.46;66.17
37778;BME280;23615;51.506;7.678;2023-03-22T12:09:27;99185.97;;;14.25;66.05
37778;BME280;23615;51.506;7.678;2023-03-22T12:11:58;99185.69;;;14.16;66.88
37778;BME280;23615;51.506;7.678;2023-03-22T12:14:28;99173.06;;;14.22;66.69
37778;BME280;23615;51.506;7.678;2023-03-22T12:17:00;99173.09;;;14.17;66.82
37778;BME280;23615;51.506;7.678;2023-03-22T12:22:15;99172.28;;;14.06;67.39
37778;BME280;23615;51.506;7.678;2023-03-22T12:24:42;99175.22;;;14.10;67.69
37778;BME280;23615;51.506;7.678;2023-03-22T12:27:20;99165.31;;;14.26;67.82
37778;BME280;23615;51.506;7.678;2023-03-22T12:30:16;99172.00;;;14.33;68.12
37778;BME280;23615;51.506;7.678;2023-03-22T12:32:47;99168.50;;;14.12;68.75
37778;BME280;23615;51.506;7.678;2023-03-22T12:35:20;99155.88;;;13.88;69.24
37778;BME280;23615;51.506;7.678;2023-03-22T12:37:51;99150.53;;;13.88;69.00
37778;BME280;23615;51.506;7.678;2023-03-22T12:40:31;99142.19;;;13.69;69.14
37778;BME280;23615;51.506;7.678;2023-03-22T12:43:00;99144.59;;;13.65;70.24
37778;BME280;23615;51.506;7.678;2023-03-22T12:45:28;99145.44;;;13.81;67.85
37778;BME280;23615;51.506;7.678;2023-03-22T12:48:02;99135.78;;;13.80;68.52
37778;BME280;23615;51.506;7.678;2023-03-22T12:50:33;99132.00;;;13.76;68.36
37778;BME280;23615;51.506;7.678;2023-03-22T12:53:01;99140.81;;;13.61;69.74
37778;BME280;23615;51.506;7.678;2023-03-22T12:55:33;99140.31;;;13.84;68.15
37778;BME280;23615;51.506;7.678;2023-03-22T12:58:00;99146.44;;;13.60;68.87
37778;BME280;23615;51.506;7.678;2023-03-22T13:00:36;99150.25;;;13.74;68.89
37778;BME280;23615;51.506;7.678;2023-03-22T13:03:18;99150.75;;;13.61;69.00
37778;BME280;23615;51.506;7.678;2023-03-22T13:05:48;99158.25;;;13.59;67.87
37778;BME280;23615;51.506;7.678;2023-03-22T13:08:19;99153.72;;;13.79;66.72
37778;BME280;23615;51.506;7.678;2023-03-22T13:11:04;99163.88;;;13.67;67.57
37778;BME280;23615;51.506;7.678;2023-03-22T13:13:40;99161.78;;;13.79;66.06
37778;BME280;23615;51.506;7.678;2023-03-22T13:23:55;99175.97;;;13.85;66.60
37778;BME280;23615;51.506;7.678;2023-03-22T13:26:44;99186.44;;;13.86;67.37
37778;BME280;23615;51.506;7.678;2023-03-22T13:29:34;99187.53;;;13.91;67.00
37778;BME280;23615;51.506;7.678;2023-03-22T13:32:02;99188.59;;;13.84;67.25
37778;BME280;23615;51.506;7.678;2023-03-22T13:34:48;99180.56;;;13.90;66.52
37778;BME280;23615;51.506;7.678;2023-03-22T13:37:32;99188.03;;;13.77;66.40
37778;BME280;23615;51.506;7.678;2023-03-22T13:40:20;99175.91;;;13.49;67.95
37778;BME280;23615;51.506;7.678;2023-03-22T13:42:47;99181.81;;;13.52;67.65
37778;BME280;23615;51.506;7.678;2023-03-22T13:45:32;99172.41;;;13.44;68.65
37778;BME280;23615;51.506;7.678;2023-03-22T13:48:28;99168.63;;;13.35;68.73
37778;BME280;23615;51.506;7.678;2023-03-22T13:50:55;99169.91;;;13.22;69.21
37778;BME280;23615;51.506;7.678;2023-03-22T13:53:28;99163.50;;;13.28;70.37
37778;BME280;23615;51.506;7.678;2023-03-22T14:00:56;99175.50;;;13.16;70.99
37778;BME280;23615;51.506;7.678;2023-03-22T14:03:31;99173.69;;;13.31;70.81
37778;BME280;23615;51.506;7.678;2023-03-22T14:06:08;99173.94;;;13.25;71.46
37778;BME280;23615;51.506;7.678;2023-03-22T14:08:35;99178.19;;;13.21;71.81
37778;BME280;23615;51.506;7.678;2023-03-22T14:11:09;99181.47;;;13.33;71.83
37778;BME280;23615;51.506;7.678;2023-03-22T14:13:48;99171.88;;;13.47;71.38